sensor_id;sensor_type;location;lat;lon;timestamp;P1;durP1;ratioP1;P2;durP2;ratioP2
68229;SDS011;55048;52.220;5.160;2023-04-04T00:00:12;5.93;;;1.05;;
68229;SDS011;55048;52.220;5.160;2023-04-04T00:02:38;3.30;;;1.05;;
68229;SDS011;55048;52.220;5.160;2023-04-04T00:05:04;9.20;;;1.73;;
68229;SDS011;55048;52.220;5.160;2023-04-04T00:07:30;3.67;;;1.10;;
68229;SDS011;55048;52.220;5.160;2023-04-04T00:09:56;1.40;;;0.90;;
68229;SDS011;55048;52.220;5.160;2023-04-04T00:12:21;3.78;;;1.00;;
68229;SDS011;55048;52.220;5.160;2023-04-04T00:14:48;3.78;;;1.08;;
68229;SDS011;55048;52.220;5.160;2023-04-04T00:17:14;1.48;;;0.98;;
68229;SDS011;55048;52.220;5.160;2023-04-04T00:19:39;2.33;;;0.90;;
68229;SDS011;55048;52.220;5.160;2023-04-04T00:22:05;2.63;;;1.02;;
68229;SDS011;55048;52.220;5.160;2023-04-04T00:24:30;2.25;;;0.90;;
68229;SDS011;55048;52.220;5.160;2023-04-04T00:26:56;1.88;;;1.10;;
68229;SDS011;55048;52.220;5.160;2023-04-04T00:29:21;3.25;;;1.10;;
68229;SDS011;55048;52.220;5.160;2023-04-04T00:31:47;3.45;;;1.25;;
68229;SDS011;55048;52.220;5.160;2023-04-04T00:34:12;2.55;;;1.05;;
68229;SDS011;55048;52.220;5.160;2023-04-04T00:36:37;1.52;;;0.90;;
68229;SDS011;55048;52.220;5.160;2023-04-04T00:39:03;2.38;;;0.90;;
68229;SDS011;55048;52.220;5.160;2023-04-04T00:41:28;3.88;;;0.95;;
68229;SDS011;55048;52.220;5.160;2023-04-04T00:43:54;3.50;;;1.27;;
68229;SDS011;55048;52.220;5.160;2023-04-04T00:46:20;4.47;;;1.10;;
68229;SDS011;55048;52.220;5.160;2023-04-04T00:48:47;2.95;;;1.30;;
68229;SDS011;55048;52.220;5.160;2023-04-04T00:51:14;3.40;;;0.95;;
68229;SDS011;55048;52.220;5.160;2023-04-04T00:53:39;2.88;;;1.13;;
68229;SDS011;55048;52.220;5.160;2023-04-04T00:56:09;4.05;;;1.05;;
68229;SDS011;55048;52.220;5.160;2023-04-04T00:58:34;3.33;;;1.02;;
68229;SDS011;55048;52.220;5.160;2023-04-04T01:01:00;6.45;;;1.17;;
68229;SDS011;55048;52.220;5.160;2023-04-04T01:03:26;3.00;;;1.00;;
68229;SDS011;55048;52.220;5.160;2023-04-04T01:05:52;8.15;;;1.10;;
68229;SDS011;55048;52.220;5.160;2023-04-04T01:08:20;3.28;;;1.08;;
68229;SDS011;55048;52.220;5.160;2023-04-04T01:10:47;3.78;;;1.00;;
68229;SDS011;55048;52.220;5.160;2023-04-04T01:13:13;3.45;;;1.30;;
68229;SDS011;55048;52.220;5.160;2023-04-04T01:15:39;4.38;;;1.00;;
68229;SDS011;55048;52.220;5.160;2023-04-04T01:18:06;3.50;;;1.00;;
68229;SDS011;55048;52.220;5.160;2023-04-04T01:20:33;2.78;;;1.10;;
68229;SDS011;55048;52.220;5.160;2023-04-04T01:23:04;2.17;;;1.02;;
68229;SDS011;55048;52.220;5.160;2023-04-04T01:25:31;3.55;;;1.10;;
68229;SDS011;55048;52.220;5.160;2023-04-04T01:28:00;2.33;;;1.20;;
68229;SDS011;55048;52.220;5.160;2023-04-04T01:30:27;4.57;;;1.38;;
68229;SDS011;55048;52.220;5.160;2023-04-04T01:33:09;4.15;;;1.30;;
68229;SDS011;55048;52.220;5.160;2023-04-04T01:41:04;4.10;;;1.40;;
68229;SDS011;55048;52.220;5.160;2023-04-04T01:43:34;2.20;;;1.10;;
68229;SDS011;55048;52.220;5.160;2023-04-04T01:46:01;3.55;;;1.50;;
68229;SDS011;55048;52.220;5.160;2023-04-04T01:48:27;2.38;;;1.20;;
68229;SDS011;55048;52.220;5.160;2023-04-04T01:50:56;2.00;;;1.40;;
68229;SDS011;55048;52.220;5.160;2023-04-04T01:53:24;5.18;;;1.45;;
68229;SDS011;55048;52.220;5.160;2023-04-04T01:55:50;4.53;;;1.60;;
68229;SDS011;55048;52.220;5.160;2023-04-04T01:58:17;5.13;;;1.60;;
68229;SDS011;55048;52.220;5.160;2023-04-04T02:00:42;3.90;;;1.48;;
68229;SDS011;55048;52.220;5.160;2023-04-04T02:03:08;7.47;;;1.83;;
68229;SDS011;55048;52.220;5.160;2023-04-04T02:05:33;4.93;;;1.40;;
68229;SDS011;55048;52.220;5.160;2023-04-04T02:07:58;4.22;;;1.67;;
68229;SDS011;55048;52.220;5.160;2023-04-04T02:10:32;5.97;;;1.45;;
68229;SDS011;55048;52.220;5.160;2023-04-04T02:12:57;6.30;;;1.70;;
68229;SDS011;55048;52.220;5.160;2023-04-04T02:15:23;8.18;;;1.98;;
68229;SDS011;55048;52.220;5.160;2023-04-04T02:17:49;5.45;;;1.33;;
68229;SDS011;55048;52.220;5.160;2023-04-04T02:20:15;7.22;;;1.65;;
68229;SDS011;55048;52.220;5.160;2023-04-04T02:22:52;8.43;;;1.83;;
68229;SDS011;55048;52.220;5.160;2023-04-04T02:25:19;3.15;;;1.38;;
68229;SDS011;55048;52.220;5.160;2023-04-04T02:27:45;2.65;;;1.40;;
68229;SDS011;55048;52.220;5.160;2023-04-04T02:30:10;3.63;;;1.58;;
68229;SDS011;55048;52.220;5.160;2023-04-04T02:32:36;4.40;;;1.75;;
68229;SDS011;55048;52.220;5.160;2023-04-04T02:35:04;3.72;;;1.50;;
68229;SDS011;55048;52.220;5.160;2023-04-04T02:37:30;6.40;;;1.70;;
68229;SDS011;55048;52.220;5.160;2023-04-04T02:39:56;2.20;;;1.48;;
68229;SDS011;55048;52.220;5.160;2023-04-04T02:42:21;3.50;;;1.50;;
68229;SDS011;55048;52.220;5.160;2023-04-04T02:44:48;8.88;;;1.70;;
68229;SDS011;55048;52.220;5.160;2023-04-04T02:47:15;3.85;;;1.50;;
68229;SDS011;55048;52.220;5.160;2023-04-04T02:49:42;2.75;;;1.70;;
68229;SDS011;55048;52.220;5.160;2023-04-04T02:52:07;4.03;;;1.80;;
68229;SDS011;55048;52.220;5.160;2023-04-04T02:54:36;3.75;;;1.40;;
68229;SDS011;55048;52.220;5.160;2023-04-04T02:57:03;3.63;;;1.60;;
68229;SDS011;55048;52.220;5.160;2023-04-04T02:59:29;2.75;;;1.70;;
68229;SDS011;55048;52.220;5.160;2023-04-04T03:01:54;5.55;;;1.50;;
68229;SDS011;55048;52.220;5.160;2023-04-04T03:04:20;3.28;;;1.55;;
68229;SDS011;55048;52.220;5.160;2023-04-04T03:06:45;3.13;;;1.50;;
68229;SDS011;55048;52.220;5.160;2023-04-04T03:09:13;4.07;;;1.98;;
68229;SDS011;55048;52.220;5.160;2023-04-04T03:11:38;7.78;;;1.90;;
68229;SDS011;55048;52.220;5.160;2023-04-04T03:14:04;7.22;;;2.05;;
68229;SDS011;55048;52.220;5.160;2023-04-04T03:16:34;5.03;;;1.70;;
68229;SDS011;55048;52.220;5.160;2023-04-04T03:18:59;3.10;;;1.55;;
68229;SDS011;55048;52.220;5.160;2023-04-04T03:21:24;3.78;;;1.70;;
68229;SDS011;55048;52.220;5.160;2023-04-04T03:23:50;5.95;;;1.73;;
68229;SDS011;55048;52.220;5.160;2023-04-04T03:26:15;4.60;;;1.90;;
68229;SDS011;55048;52.220;5.160;2023-04-04T03:28:42;2.92;;;1.67;;
68229;SDS011;55048;52.220;5.160;2023-04-04T03:31:09;7.75;;;2.22;;
68229;SDS011;55048;52.220;5.160;2023-04-04T03:33:38;4.28;;;1.73;;
68229;SDS011;55048;52.220;5.160;2023-04-04T03:36:14;8.25;;;2.55;;
68229;SDS011;55048;52.220;5.160;2023-04-04T03:38:39;6.00;;;1.75;;
68229;SDS011;55048;52.220;5.160;2023-04-04T03:41:05;3.08;;;1.70;;
68229;SDS011;55048;52.220;5.160;2023-04-04T03:43:32;5.60;;;2.20;;
68229;SDS011;55048;52.220;5.160;2023-04-04T03:46:01;4.57;;;1.75;;
68229;SDS011;55048;52.220;5.160;2023-04-04T03:48:28;7.25;;;2.47;;
68229;SDS011;55048;52.220;5.160;2023-04-04T03:50:55;3.72;;;1.67;;
68229;SDS011;55048;52.220;5.160;2023-04-04T03:53:22;3.20;;;1.92;;
68229;SDS011;55048;52.220;5.160;2023-04-04T03:55:51;4.40;;;1.80;;
68229;SDS011;55048;52.220;5.160;2023-04-04T03:58:19;5.88;;;2.22;;
68229;SDS011;55048;52.220;5.160;2023-04-04T04:00:44;5.28;;;2.03;;
68229;SDS011;55048;52.220;5.160;2023-04-04T04:03:10;4.15;;;2.28;;
68229;SDS011;55048;52.220;5.160;2023-04-04T04:05:35;6.38;;;2.05;;
68229;SDS011;55048;52.220;5.160;2023-04-04T04:08:00;3.80;;;2.03;;
68229;SDS011;55048;52.220;5.160;2023-04-04T04:10:26;8.18;;;2.20;;
68229;SDS011;55048;52.220;5.160;2023-04-04T04:12:51;5.68;;;2.45;;
68229;SDS011;55048;52.220;5.160;2023-04-04T04:15:17;8.07;;;2.75;;
68229;SDS011;55048;52.220;5.160;2023-04-04T04:17:43;8.60;;;2.40;;
68229;SDS011;55048;52.220;5.160;2023-04-04T04:20:10;5.63;;;2.58;;
68229;SDS011;55048;52.220;5.160;2023-04-04T04:22:50;4.82;;;2.42;;
68229;SDS011;55048;52.220;5.160;2023-04-04T04:25:15;2.70;;;2.10;;
68229;SDS011;55048;52.220;5.160;2023-04-04T04:27:48;7.53;;;2.78;;
68229;SDS011;55048;52.220;5.160;2023-04-04T04:30:14;7.72;;;2.40;;
68229;SDS011;55048;52.220;5.160;2023-04-04T04:32:43;4.40;;;2.22;;
68229;SDS011;55048;52.220;5.160;2023-04-04T04:35:09;6.18;;;2.30;;
68229;SDS011;55048;52.220;5.160;2023-04-04T04:37:36;5.72;;;2.22;;
68229;SDS011;55048;52.220;5.160;2023-04-04T04:40:04;5.97;;;2.30;;
68229;SDS011;55048;52.220;5.160;2023-04-04T04:42:39;5.03;;;2.25;;
68229;SDS011;55048;52.220;5.160;2023-04-04T04:45:08;4.60;;;2.22;;
68229;SDS011;55048;52.220;5.160;2023-04-04T04:47:35;7.35;;;2.40;;
68229;SDS011;55048;52.220;5.160;2023-04-04T04:50:04;5.05;;;2.25;;
68229;SDS011;55048;52.220;5.160;2023-04-04T04:52:36;5.82;;;3.05;;
68229;SDS011;55048;52.220;5.160;2023-04-04T04:55:02;6.60;;;2.70;;
68229;SDS011;55048;52.220;5.160;2023-04-04T04:57:28;4.90;;;1.88;;
68229;SDS011;55048;52.220;5.160;2023-04-04T04:59:56;7.20;;;2.78;;
68229;SDS011;55048;52.220;5.160;2023-04-04T05:02:23;9.05;;;2.38;;
68229;SDS011;55048;52.220;5.160;2023-04-04T05:04:49;5.10;;;2.70;;
68229;SDS011;55048;52.220;5.160;2023-04-04T05:07:15;4.35;;;2.33;;
68229;SDS011;55048;52.220;5.160;2023-04-04T05:09:44;6.65;;;2.25;;
68229;SDS011;55048;52.220;5.160;2023-04-04T05:12:10;9.02;;;2.60;;
68229;SDS011;55048;52.220;5.160;2023-04-04T05:14:43;7.32;;;2.85;;
68229;SDS011;55048;52.220;5.160;2023-04-04T05:17:08;5.35;;;2.65;;
68229;SDS011;55048;52.220;5.160;2023-04-04T05:19:34;6.80;;;2.67;;
68229;SDS011;55048;52.220;5.160;2023-04-04T05:22:00;6.85;;;2.40;;
68229;SDS011;55048;52.220;5.160;2023-04-04T05:24:31;7.57;;;3.17;;
68229;SDS011;55048;52.220;5.160;2023-04-04T05:26:58;8.38;;;2.45;;
68229;SDS011;55048;52.220;5.160;2023-04-04T05:29:23;6.05;;;3.10;;
68229;SDS011;55048;52.220;5.160;2023-04-04T05:31:50;6.35;;;2.75;;
68229;SDS011;55048;52.220;5.160;2023-04-04T05:34:18;4.57;;;2.70;;
68229;SDS011;55048;52.220;5.160;2023-04-04T05:36:44;5.53;;;3.35;;
68229;SDS011;55048;52.220;5.160;2023-04-04T05:39:10;5.40;;;2.97;;
68229;SDS011;55048;52.220;5.160;2023-04-04T05:41:42;12.88;;;3.17;;
68229;SDS011;55048;52.220;5.160;2023-04-04T05:44:13;5.20;;;2.60;;
68229;SDS011;55048;52.220;5.160;2023-04-04T05:46:38;6.32;;;2.53;;
68229;SDS011;55048;52.220;5.160;2023-04-04T05:49:05;7.00;;;2.72;;
68229;SDS011;55048;52.220;5.160;2023-04-04T05:51:32;5.38;;;2.30;;
68229;SDS011;55048;52.220;5.160;2023-04-04T05:54:12;8.23;;;3.28;;
68229;SDS011;55048;52.220;5.160;2023-04-04T05:56:38;5.60;;;2.55;;
68229;SDS011;55048;52.220;5.160;2023-04-04T05:59:09;8.75;;;2.83;;
68229;SDS011;55048;52.220;5.160;2023-04-04T06:01:47;7.40;;;2.80;;
68229;SDS011;55048;52.220;5.160;2023-04-04T06:04:13;4.22;;;2.45;;
68229;SDS011;55048;52.220;5.160;2023-04-04T06:06:38;4.93;;;2.53;;
68229;SDS011;55048;52.220;5.160;2023-04-04T06:09:04;6.00;;;2.50;;
68229;SDS011;55048;52.220;5.160;2023-04-04T06:11:30;7.93;;;2.78;;
68229;SDS011;55048;52.220;5.160;2023-04-04T06:14:01;5.20;;;2.50;;
68229;SDS011;55048;52.220;5.160;2023-04-04T06:16:27;4.65;;;2.20;;
68229;SDS011;55048;52.220;5.160;2023-04-04T06:18:53;5.03;;;2.50;;
68229;SDS011;55048;52.220;5.160;2023-04-04T06:21:18;4.70;;;2.50;;
68229;SDS011;55048;52.220;5.160;2023-04-04T06:23:44;4.90;;;2.15;;
68229;SDS011;55048;52.220;5.160;2023-04-04T06:26:09;5.22;;;2.70;;
68229;SDS011;55048;52.220;5.160;2023-04-04T06:28:37;4.05;;;2.63;;
68229;SDS011;55048;52.220;5.160;2023-04-04T06:31:10;6.47;;;2.60;;
68229;SDS011;55048;52.220;5.160;2023-04-04T06:33:36;8.07;;;2.63;;
68229;SDS011;55048;52.220;5.160;2023-04-04T06:36:01;6.32;;;2.40;;
68229;SDS011;55048;52.220;5.160;2023-04-04T06:38:27;9.43;;;2.33;;
68229;SDS011;55048;52.220;5.160;2023-04-04T06:40:55;12.23;;;2.25;;
68229;SDS011;55048;52.220;5.160;2023-04-04T06:43:21;6.80;;;2.10;;
68229;SDS011;55048;52.220;5.160;2023-04-04T06:45:47;5.63;;;2.40;;
68229;SDS011;55048;52.220;5.160;2023-04-04T06:48:13;6.93;;;2.00;;
68229;SDS011;55048;52.220;5.160;2023-04-04T06:50:38;7.18;;;2.20;;
68229;SDS011;55048;52.220;5.160;2023-04-04T06:53:07;6.72;;;2.88;;
68229;SDS011;55048;52.220;5.160;2023-04-04T06:55:33;7.68;;;2.17;;
68229;SDS011;55048;52.220;5.160;2023-04-04T06:57:59;5.38;;;2.38;;
68229;SDS011;55048;52.220;5.160;2023-04-04T07:00:24;9.05;;;3.05;;
68229;SDS011;55048;52.220;5.160;2023-04-04T07:02:55;5.30;;;2.08;;
68229;SDS011;55048;52.220;5.160;2023-04-04T07:05:23;6.65;;;2.22;;
68229;SDS011;55048;52.220;5.160;2023-04-04T07:07:50;12.73;;;2.30;;
68229;SDS011;55048;52.220;5.160;2023-04-04T07:12:44;5.25;;;2.08;;
68229;SDS011;55048;52.220;5.160;2023-04-04T07:15:09;9.40;;;2.05;;
68229;SDS011;55048;52.220;5.160;2023-04-04T07:17:38;8.70;;;2.10;;
68229;SDS011;55048;52.220;5.160;2023-04-04T07:20:05;7.13;;;2.00;;
68229;SDS011;55048;52.220;5.160;2023-04-04T07:22:32;10.18;;;1.88;;
68229;SDS011;55048;52.220;5.160;2023-04-04T07:24:57;3.70;;;1.83;;
68229;SDS011;55048;52.220;5.160;2023-04-04T07:27:23;5.63;;;2.38;;
68229;SDS011;55048;52.220;5.160;2023-04-04T07:29:48;4.05;;;1.52;;
68229;SDS011;55048;52.220;5.160;2023-04-04T07:32:13;3.63;;;1.73;;
68229;SDS011;55048;52.220;5.160;2023-04-04T07:34:39;7.82;;;2.25;;
68229;SDS011;55048;52.220;5.160;2023-04-04T07:37:04;6.30;;;2.10;;
68229;SDS011;55048;52.220;5.160;2023-04-04T07:39:29;8.50;;;1.80;;
68229;SDS011;55048;52.220;5.160;2023-04-04T07:41:56;7.80;;;2.08;;
68229;SDS011;55048;52.220;5.160;2023-04-04T07:44:21;5.03;;;2.00;;
68229;SDS011;55048;52.220;5.160;2023-04-04T07:46:46;6.90;;;2.20;;
68229;SDS011;55048;52.220;5.160;2023-04-04T07:49:12;4.95;;;1.70;;
68229;SDS011;55048;52.220;5.160;2023-04-04T07:51:37;3.63;;;1.98;;
68229;SDS011;55048;52.220;5.160;2023-04-04T07:54:03;4.97;;;2.20;;
68229;SDS011;55048;52.220;5.160;2023-04-04T07:56:29;10.35;;;1.70;;
68229;SDS011;55048;52.220;5.160;2023-04-04T07:58:55;3.75;;;1.30;;
68229;SDS011;55048;52.220;5.160;2023-04-04T08:01:20;2.60;;;1.27;;
68229;SDS011;55048;52.220;5.160;2023-04-04T08:03:46;8.05;;;1.40;;
68229;SDS011;55048;52.220;5.160;2023-04-04T08:06:11;4.00;;;1.08;;
68229;SDS011;55048;52.220;5.160;2023-04-04T08:08:37;3.20;;;1.10;;
68229;SDS011;55048;52.220;5.160;2023-04-04T08:11:02;6.97;;;1.27;;
68229;SDS011;55048;52.220;5.160;2023-04-04T08:13:28;3.45;;;1.20;;
68229;SDS011;55048;52.220;5.160;2023-04-04T08:15:53;3.42;;;1.30;;
68229;SDS011;55048;52.220;5.160;2023-04-04T08:18:19;4.40;;;1.05;;
68229;SDS011;55048;52.220;5.160;2023-04-04T08:20:44;4.13;;;0.70;;
68229;SDS011;55048;52.220;5.160;2023-04-04T08:23:10;2.95;;;0.95;;
68229;SDS011;55048;52.220;5.160;2023-04-04T08:25:37;2.83;;;0.80;;
68229;SDS011;55048;52.220;5.160;2023-04-04T08:28:03;2.88;;;0.75;;
68229;SDS011;55048;52.220;5.160;2023-04-04T08:30:29;3.30;;;0.90;;
68229;SDS011;55048;52.220;5.160;2023-04-04T08:32:55;1.58;;;0.50;;
68229;SDS011;55048;52.220;5.160;2023-04-04T08:35:21;1.55;;;0.60;;
68229;SDS011;55048;52.220;5.160;2023-04-04T08:37:47;3.50;;;0.70;;
68229;SDS011;55048;52.220;5.160;2023-04-04T08:40:12;3.75;;;0.80;;
68229;SDS011;55048;52.220;5.160;2023-04-04T08:42:39;4.97;;;0.88;;
68229;SDS011;55048;52.220;5.160;2023-04-04T08:45:05;2.78;;;0.80;;
68229;SDS011;55048;52.220;5.160;2023-04-04T08:47:33;4.53;;;0.80;;
68229;SDS011;55048;52.220;5.160;2023-04-04T08:50:04;2.78;;;0.70;;
68229;SDS011;55048;52.220;5.160;2023-04-04T08:52:31;4.78;;;0.60;;
68229;SDS011;55048;52.220;5.160;2023-04-04T08:54:58;3.55;;;0.60;;
68229;SDS011;55048;52.220;5.160;2023-04-04T08:57:24;2.03;;;0.60;;
68229;SDS011;55048;52.220;5.160;2023-04-04T08:59:49;3.72;;;0.70;;
68229;SDS011;55048;52.220;5.160;2023-04-04T09:05:06;0.93;;;0.50;;
68229;SDS011;55048;52.220;5.160;2023-04-04T09:07:33;3.33;;;0.55;;
68229;SDS011;55048;52.220;5.160;2023-04-04T09:10:00;1.50;;;0.60;;
68229;SDS011;55048;52.220;5.160;2023-04-04T09:12:26;4.78;;;0.93;;
68229;SDS011;55048;52.220;5.160;2023-04-04T09:14:53;5.88;;;0.85;;
68229;SDS011;55048;52.220;5.160;2023-04-04T09:17:20;1.33;;;0.75;;
68229;SDS011;55048;52.220;5.160;2023-04-04T09:19:46;4.10;;;1.00;;
68229;SDS011;55048;52.220;5.160;2023-04-04T09:22:12;3.75;;;1.00;;
68229;SDS011;55048;52.220;5.160;2023-04-04T09:24:42;2.92;;;0.90;;
68229;SDS011;55048;52.220;5.160;2023-04-04T09:27:08;2.47;;;0.65;;
68229;SDS011;55048;52.220;5.160;2023-04-04T09:29:38;3.60;;;0.88;;
68229;SDS011;55048;52.220;5.160;2023-04-04T09:34:34;2.15;;;0.90;;
68229;SDS011;55048;52.220;5.160;2023-04-04T09:37:01;4.00;;;1.10;;
68229;SDS011;55048;52.220;5.160;2023-04-04T09:39:28;3.35;;;0.80;;
68229;SDS011;55048;52.220;5.160;2023-04-04T09:41:53;5.60;;;1.08;;
68229;SDS011;55048;52.220;5.160;2023-04-04T09:44:19;4.50;;;1.40;;
68229;SDS011;55048;52.220;5.160;2023-04-04T09:46:45;1.50;;;0.90;;
68229;SDS011;55048;52.220;5.160;2023-04-04T09:49:19;2.03;;;0.80;;
68229;SDS011;55048;52.220;5.160;2023-04-04T09:51:52;3.13;;;0.93;;
68229;SDS011;55048;52.220;5.160;2023-04-04T09:54:22;2.38;;;1.08;;
68229;SDS011;55048;52.220;5.160;2023-04-04T09:56:48;2.40;;;1.10;;
68229;SDS011;55048;52.220;5.160;2023-04-04T09:59:15;3.13;;;1.00;;
68229;SDS011;55048;52.220;5.160;2023-04-04T10:01:41;7.80;;;1.20;;
68229;SDS011;55048;52.220;5.160;2023-04-04T10:04:07;4.40;;;1.05;;
68229;SDS011;55048;52.220;5.160;2023-04-04T10:06:35;4.03;;;1.17;;
68229;SDS011;55048;52.220;5.160;2023-04-04T10:09:01;5.15;;;1.00;;
68229;SDS011;55048;52.220;5.160;2023-04-04T10:11:31;3.58;;;0.98;;
68229;SDS011;55048;52.220;5.160;2023-04-04T10:13:58;2.53;;;0.90;;
68229;SDS011;55048;52.220;5.160;2023-04-04T10:16:24;2.20;;;0.90;;
68229;SDS011;55048;52.220;5.160;2023-04-04T10:18:50;4.88;;;1.08;;
68229;SDS011;55048;52.220;5.160;2023-04-04T10:21:16;4.70;;;1.48;;
68229;SDS011;55048;52.220;5.160;2023-04-04T10:23:44;4.13;;;1.13;;
68229;SDS011;55048;52.220;5.160;2023-04-04T10:26:11;3.03;;;1.10;;
68229;SDS011;55048;52.220;5.160;2023-04-04T10:28:37;2.50;;;0.98;;
68229;SDS011;55048;52.220;5.160;2023-04-04T10:31:05;3.53;;;0.82;;
68229;SDS011;55048;52.220;5.160;2023-04-04T10:36:27;1.73;;;1.00;;
68229;SDS011;55048;52.220;5.160;2023-04-04T10:38:57;3.85;;;1.17;;
68229;SDS011;55048;52.220;5.160;2023-04-04T10:41:31;5.18;;;1.00;;
68229;SDS011;55048;52.220;5.160;2023-04-04T10:43:59;2.63;;;1.00;;
68229;SDS011;55048;52.220;5.160;2023-04-04T10:46:31;5.45;;;1.20;;
68229;SDS011;55048;52.220;5.160;2023-04-04T10:48:58;2.85;;;1.00;;
68229;SDS011;55048;52.220;5.160;2023-04-04T10:51:25;2.70;;;0.90;;
68229;SDS011;55048;52.220;5.160;2023-04-04T10:53:51;3.15;;;1.10;;
68229;SDS011;55048;52.220;5.160;2023-04-04T10:56:17;3.38;;;1.02;;
68229;SDS011;55048;52.220;5.160;2023-04-04T10:58:43;4.20;;;1.40;;
68229;SDS011;55048;52.220;5.160;2023-04-04T11:01:09;3.80;;;1.17;;
68229;SDS011;55048;52.220;5.160;2023-04-04T11:09:45;2.40;;;1.10;;
68229;SDS011;55048;52.220;5.160;2023-04-04T11:12:22;3.15;;;1.20;;
68229;SDS011;55048;52.220;5.160;2023-04-04T11:20:20;5.43;;;1.30;;
68229;SDS011;55048;52.220;5.160;2023-04-04T11:23:06;5.28;;;1.63;;
68229;SDS011;55048;52.220;5.160;2023-04-04T11:25:52;1.70;;;1.15;;
68229;SDS011;55048;52.220;5.160;2023-04-04T11:33:54;4.20;;;1.25;;
68229;SDS011;55048;52.220;5.160;2023-04-04T11:44:29;3.72;;;1.00;;
68229;SDS011;55048;52.220;5.160;2023-04-04T11:47:01;3.15;;;1.10;;
68229;SDS011;55048;52.220;5.160;2023-04-04T11:49:28;6.00;;;0.90;;
68229;SDS011;55048;52.220;5.160;2023-04-04T11:51:56;3.10;;;1.30;;
68229;SDS011;55048;52.220;5.160;2023-04-04T11:54:22;5.97;;;1.10;;
68229;SDS011;55048;52.220;5.160;2023-04-04T11:56:48;2.58;;;1.10;;
68229;SDS011;55048;52.220;5.160;2023-04-04T11:59:17;4.88;;;1.10;;
68229;SDS011;55048;52.220;5.160;2023-04-04T12:01:44;2.72;;;1.10;;
68229;SDS011;55048;52.220;5.160;2023-04-04T12:04:10;4.68;;;1.20;;
68229;SDS011;55048;52.220;5.160;2023-04-04T12:06:36;2.88;;;0.98;;
68229;SDS011;55048;52.220;5.160;2023-04-04T12:09:03;1.65;;;0.98;;
68229;SDS011;55048;52.220;5.160;2023-04-04T12:11:30;3.10;;;1.13;;
68229;SDS011;55048;52.220;5.160;2023-04-04T12:13:58;6.53;;;1.20;;
68229;SDS011;55048;52.220;5.160;2023-04-04T12:16:24;2.13;;;1.10;;
68229;SDS011;55048;52.220;5.160;2023-04-04T12:18:51;4.82;;;1.10;;
68229;SDS011;55048;52.220;5.160;2023-04-04T12:21:17;3.72;;;1.30;;
68229;SDS011;55048;52.220;5.160;2023-04-04T12:23:43;3.67;;;1.10;;
68229;SDS011;55048;52.220;5.160;2023-04-04T12:26:08;2.58;;;0.90;;
68229;SDS011;55048;52.220;5.160;2023-04-04T12:28:35;3.45;;;1.17;;
68229;SDS011;55048;52.220;5.160;2023-04-04T12:31:04;2.90;;;0.95;;
68229;SDS011;55048;52.220;5.160;2023-04-04T12:33:33;3.47;;;1.20;;
68229;SDS011;55048;52.220;5.160;2023-04-04T12:36:03;2.75;;;0.98;;
68229;SDS011;55048;52.220;5.160;2023-04-04T12:38:30;2.97;;;1.00;;
68229;SDS011;55048;52.220;5.160;2023-04-04T12:40:57;3.10;;;1.00;;
68229;SDS011;55048;52.220;5.160;2023-04-04T12:43:26;4.88;;;1.00;;
68229;SDS011;55048;52.220;5.160;2023-04-04T12:45:55;4.25;;;1.10;;
68229;SDS011;55048;52.220;5.160;2023-04-04T12:48:25;6.00;;;1.30;;
68229;SDS011;55048;52.220;5.160;2023-04-04T12:50:56;4.22;;;1.00;;
68229;SDS011;55048;52.220;5.160;2023-04-04T12:55:49;4.32;;;1.10;;
68229;SDS011;55048;52.220;5.160;2023-04-04T12:58:16;4.80;;;1.20;;
68229;SDS011;55048;52.220;5.160;2023-04-04T13:00:42;4.60;;;1.20;;
68229;SDS011;55048;52.220;5.160;2023-04-04T13:03:08;3.97;;;1.17;;
68229;SDS011;55048;52.220;5.160;2023-04-04T13:05:34;3.53;;;1.30;;
68229;SDS011;55048;52.220;5.160;2023-04-04T13:08:07;2.92;;;1.20;;
68229;SDS011;55048;52.220;5.160;2023-04-04T13:13:32;2.28;;;1.00;;
68229;SDS011;55048;52.220;5.160;2023-04-04T13:16:06;2.75;;;1.30;;
68229;SDS011;55048;52.220;5.160;2023-04-04T13:21:01;2.58;;;1.00;;
68229;SDS011;55048;52.220;5.160;2023-04-04T13:23:27;2.97;;;1.25;;
68229;SDS011;55048;52.220;5.160;2023-04-04T13:25:52;4.78;;;1.10;;
68229;SDS011;55048;52.220;5.160;2023-04-04T13:28:18;5.32;;;1.30;;
68229;SDS011;55048;52.220;5.160;2023-04-04T13:30:43;3.67;;;1.30;;
68229;SDS011;55048;52.220;5.160;2023-04-04T13:33:16;2.55;;;1.38;;
68229;SDS011;55048;52.220;5.160;2023-04-04T13:35:42;3.80;;;1.20;;
68229;SDS011;55048;52.220;5.160;2023-04-04T13:38:11;4.72;;;1.10;;
68229;SDS011;55048;52.220;5.160;2023-04-04T13:40:36;3.83;;;1.10;;
68229;SDS011;55048;52.220;5.160;2023-04-04T13:43:02;7.57;;;1.30;;
68229;SDS011;55048;52.220;5.160;2023-04-04T13:45:28;2.13;;;1.13;;
68229;SDS011;55048;52.220;5.160;2023-04-04T13:47:56;3.40;;;1.38;;
68229;SDS011;55048;52.220;5.160;2023-04-04T13:50:21;4.95;;;1.30;;
68229;SDS011;55048;52.220;5.160;2023-04-04T13:52:47;1.92;;;1.10;;
68229;SDS011;55048;52.220;5.160;2023-04-04T13:55:12;3.25;;;1.10;;
68229;SDS011;55048;52.220;5.160;2023-04-04T13:57:38;2.15;;;1.20;;
68229;SDS011;55048;52.220;5.160;2023-04-04T14:00:03;3.10;;;1.10;;
68229;SDS011;55048;52.220;5.160;2023-04-04T14:02:34;4.13;;;1.17;;
68229;SDS011;55048;52.220;5.160;2023-04-04T14:05:00;4.03;;;1.20;;
68229;SDS011;55048;52.220;5.160;2023-04-04T14:07:25;5.00;;;1.45;;
68229;SDS011;55048;52.220;5.160;2023-04-04T14:09:51;2.72;;;1.10;;
68229;SDS011;55048;52.220;5.160;2023-04-04T14:12:16;4.03;;;1.10;;
68229;SDS011;55048;52.220;5.160;2023-04-04T14:14:50;5.22;;;1.20;;
68229;SDS011;55048;52.220;5.160;2023-04-04T14:17:16;3.70;;;1.10;;
68229;SDS011;55048;52.220;5.160;2023-04-04T14:19:47;3.67;;;1.17;;
68229;SDS011;55048;52.220;5.160;2023-04-04T14:22:13;2.65;;;1.10;;
68229;SDS011;55048;52.220;5.160;2023-04-04T14:24:38;6.53;;;1.92;;
68229;SDS011;55048;52.220;5.160;2023-04-04T14:27:04;2.67;;;1.38;;
68229;SDS011;55048;52.220;5.160;2023-04-04T14:29:30;3.20;;;1.00;;
68229;SDS011;55048;52.220;5.160;2023-04-04T14:31:55;4.78;;;1.30;;
68229;SDS011;55048;52.220;5.160;2023-04-04T14:34:20;3.47;;;1.10;;
68229;SDS011;55048;52.220;5.160;2023-04-04T14:36:46;2.75;;;1.20;;
68229;SDS011;55048;52.220;5.160;2023-04-04T14:39:12;3.13;;;1.20;;
68229;SDS011;55048;52.220;5.160;2023-04-04T14:41:38;4.45;;;1.20;;
68229;SDS011;55048;52.220;5.160;2023-04-04T14:44:04;3.45;;;1.35;;
68229;SDS011;55048;52.220;5.160;2023-04-04T14:46:30;3.60;;;1.35;;
68229;SDS011;55048;52.220;5.160;2023-04-04T14:48:57;3.15;;;1.10;;
68229;SDS011;55048;52.220;5.160;2023-04-04T14:51:23;2.22;;;1.27;;
68229;SDS011;55048;52.220;5.160;2023-04-04T14:53:48;2.67;;;1.00;;
68229;SDS011;55048;52.220;5.160;2023-04-04T14:56:16;5.28;;;1.30;;
68229;SDS011;55048;52.220;5.160;2023-04-04T14:58:41;5.00;;;1.13;;
68229;SDS011;55048;52.220;5.160;2023-04-04T15:01:10;5.15;;;1.20;;
68229;SDS011;55048;52.220;5.160;2023-04-04T15:03:36;5.40;;;1.40;;
68229;SDS011;55048;52.220;5.160;2023-04-04T15:06:05;3.97;;;1.20;;
68229;SDS011;55048;52.220;5.160;2023-04-04T15:08:30;5.78;;;1.30;;
68229;SDS011;55048;52.220;5.160;2023-04-04T15:10:56;4.18;;;1.20;;
68229;SDS011;55048;52.220;5.160;2023-04-04T15:13:21;4.53;;;1.35;;
68229;SDS011;55048;52.220;5.160;2023-04-04T15:15:47;5.32;;;1.40;;
68229;SDS011;55048;52.220;5.160;2023-04-04T15:18:13;5.80;;;1.85;;
68229;SDS011;55048;52.220;5.160;2023-04-04T15:20:39;3.72;;;1.50;;
68229;SDS011;55048;52.220;5.160;2023-04-04T15:23:05;3.80;;;1.60;;
68229;SDS011;55048;52.220;5.160;2023-04-04T15:25:31;3.03;;;1.40;;
68229;SDS011;55048;52.220;5.160;2023-04-04T15:27:57;5.10;;;1.63;;
68229;SDS011;55048;52.220;5.160;2023-04-04T15:30:22;6.03;;;1.92;;
68229;SDS011;55048;52.220;5.160;2023-04-04T15:32:48;5.97;;;2.00;;
68229;SDS011;55048;52.220;5.160;2023-04-04T15:35:15;3.90;;;1.38;;